createdAt,value
2023-02-17T00:09:55.479Z,11.60
2023-02-17T00:19:55.671Z,11.75
2023-02-17T00:29:55.549Z,11.88
2023-02-17T00:39:55.526Z,12.00
2023-02-17T00:49:55.512Z,12.10
2023-02-17T00:59:56.290Z,12.17
2023-02-17T01:09:56.643Z,12.21
2023-02-17T01:19:56.630Z,12.24
2023-02-17T01:29:56.622Z,12.22
2023-02-17T01:39:56.502Z,12.19
2023-02-17T01:49:56.548Z,12.17
2023-02-17T01:59:56.614Z,12.17
2023-02-17T02:09:56.578Z,12.18
2023-02-17T02:19:56.588Z,12.20
2023-02-17T02:29:56.695Z,12.21
2023-02-17T02:39:56.733Z,12.23
2023-02-17T02:49:56.811Z,12.25
2023-02-17T02:59:56.851Z,12.26
2023-02-17T03:09:57.257Z,12.27
2023-02-17T03:19:58.180Z,12.27
2023-02-17T03:29:58.821Z,12.28
2023-02-17T03:40:02.913Z,12.29
2023-02-17T03:50:02.807Z,12.29
2023-02-17T04:00:06.062Z,12.30
2023-02-17T04:10:08.341Z,12.31
2023-02-17T04:20:08.570Z,12.32
2023-02-17T04:30:10.321Z,12.34
2023-02-17T04:40:10.749Z,12.40
2023-02-17T04:50:10.790Z,12.48
2023-02-17T05:00:10.832Z,12.58
2023-02-17T05:10:10.786Z,12.66
2023-02-17T05:20:10.818Z,12.69
2023-02-17T05:30:10.859Z,12.66
2023-02-17T05:40:10.846Z,12.63
2023-02-17T05:50:11.000Z,12.60
2023-02-17T06:00:13.821Z,12.58
2023-02-17T06:10:13.897Z,12.59
2023-02-17T06:20:13.868Z,12.61
2023-02-17T06:30:14.658Z,12.62
2023-02-17T06:40:14.955Z,12.64
2023-02-17T06:50:15.535Z,12.65
2023-02-17T07:00:16.079Z,12.68
2023-02-17T07:10:16.049Z,12.71
2023-02-17T07:20:16.043Z,12.72
2023-02-17T07:30:16.270Z,12.69
2023-02-17T07:40:15.996Z,12.71
2023-02-17T07:50:16.083Z,12.78
2023-02-17T08:00:16.094Z,12.87
2023-02-17T08:10:34.526Z,12.99
2023-02-17T08:20:35.588Z,13.12
2023-02-17T08:30:36.539Z,13.24
2023-02-17T08:40:37.085Z,13.39
2023-02-17T08:50:37.237Z,13.61
2023-02-17T09:00:37.194Z,13.92
2023-02-17T09:10:37.100Z,14.29
2023-02-17T09:20:37.248Z,14.66
2023-02-17T09:30:37.255Z,15.08
2023-02-17T09:40:37.222Z,15.51
2023-02-17T09:50:37.291Z,15.90
2023-02-17T10:00:37.241Z,16.28
2023-02-17T10:10:37.326Z,16.60
2023-02-17T10:20:37.235Z,16.85
2023-02-17T10:30:37.350Z,16.95
2023-02-17T10:40:37.570Z,17.10
2023-02-17T10:50:37.578Z,17.40
2023-02-17T11:00:37.442Z,17.47
2023-02-17T11:10:37.363Z,17.31
2023-02-17T11:20:37.295Z,17.26
2023-02-17T11:30:38.322Z,17.37
2023-02-17T11:40:38.315Z,17.48
2023-02-17T11:50:41.653Z,17.68
2023-02-17T12:00:40.376Z,17.88
2023-02-17T12:10:40.441Z,17.81
2023-02-17T12:20:41.050Z,17.56
2023-02-17T12:30:41.532Z,17.25
2023-02-17T12:40:41.493Z,17.08
2023-02-17T12:50:41.429Z,17.19
2023-02-17T13:00:41.575Z,17.55
2023-02-17T13:10:41.451Z,17.77
2023-02-17T13:20:44.017Z,17.74
2023-02-17T13:30:44.769Z,17.61
2023-02-17T13:40:44.493Z,17.49
2023-02-17T13:50:44.501Z,17.37
2023-02-17T14:00:44.493Z,17.28
2023-02-17T14:10:44.542Z,17.16
2023-02-17T14:20:44.512Z,17.03
2023-02-17T14:30:44.824Z,16.91
2023-02-17T14:40:45.631Z,16.75
2023-02-17T14:50:45.712Z,16.52
2023-02-17T15:00:45.607Z,16.28
2023-02-17T15:10:45.704Z,16.09
2023-02-17T15:20:45.659Z,15.96
2023-02-17T15:30:45.681Z,15.84
2023-02-17T15:40:45.806Z,15.71
2023-02-17T15:50:45.748Z,15.53
2023-02-17T16:00:46.110Z,15.36
2023-02-17T16:10:46.728Z,15.17
2023-02-17T16:20:46.714Z,14.96
2023-02-17T16:30:48.622Z,14.77
2023-02-17T16:40:48.858Z,14.62
2023-02-17T16:50:48.834Z,14.48
2023-02-17T17:00:48.901Z,14.35
2023-02-17T17:10:48.914Z,14.23
2023-02-17T17:20:48.966Z,14.11
2023-02-17T17:30:48.898Z,13.99
2023-02-17T17:40:49.084Z,13.88
2023-02-17T17:50:48.897Z,13.81
2023-02-17T18:00:48.890Z,13.75
2023-02-17T18:10:48.881Z,13.71
2023-02-17T18:20:48.883Z,13.69
2023-02-17T18:30:48.944Z,13.67
2023-02-17T18:40:48.942Z,13.65
2023-02-17T18:50:50.110Z,13.63
2023-02-17T19:00:49.898Z,13.60
2023-02-17T19:10:50.057Z,13.57
2023-02-17T19:20:49.925Z,13.54
2023-02-17T19:30:50.006Z,13.52
2023-02-17T19:40:49.999Z,13.52
2023-02-17T19:50:49.974Z,13.51
2023-02-17T20:00:50.022Z,13.50
2023-02-17T20:10:50.150Z,13.47
2023-02-17T20:20:50.045Z,13.42
2023-02-17T20:30:50.043Z,13.37
2023-02-17T20:40:50.067Z,13.32
2023-02-17T20:50:50.083Z,13.28
2023-02-17T21:00:50.079Z,13.23
2023-02-17T21:10:50.240Z,13.19
2023-02-17T21:20:50.067Z,13.15
2023-02-17T21:30:50.101Z,13.12
2023-02-17T21:40:50.148Z,13.08
2023-02-17T21:50:50.129Z,13.04
2023-02-17T22:00:50.335Z,13.00
2023-02-17T22:10:50.193Z,12.98
2023-02-17T22:20:50.258Z,12.95
2023-02-17T22:30:50.224Z,12.94
2023-02-17T22:40:50.327Z,12.92
2023-02-17T22:50:50.253Z,12.89
2023-02-17T23:00:50.331Z,12.87
2023-02-17T23:10:50.257Z,12.86
2023-02-17T23:20:51.252Z,12.84
2023-02-17T23:30:51.253Z,12.83
2023-02-17T23:40:51.392Z,12.82
2023-02-17T23:50:51.296Z,12.81
